Flight Track Log - Related Links

Times and Time Zones

All times are in EDT time to prevent confusion due to time zone crossing. See the CPT7773 flight status page for this flight to view local times or setup timezone preferences in your user account.


Time Position Orientation Groundspeed Altitude Reporting Facility
EDT Latitude Longitude Course Direction KTS MPH feet Rate Location/Type
Tue 07:53:54 PM 44.5247 -108.9578 112° Southeast 126 145 6,800  Level Salt Lake Center
Tue 07:54:56 PM 44.5094 -108.9050 112° Southeast 131 151 7,800 780 Climbing Salt Lake Center
Tue 07:55:57 PM 44.5008 -108.8578 104° East 130 150 8,400 537 Climbing Salt Lake Center
Tue 07:56:59 PM 44.4836 -108.8008 113° Southeast 136 157 8,900 629 Climbing Salt Lake Center
Tue 07:58:01 PM 44.4733 -108.7514 106° East 139 160 9,700 585 Climbing Salt Lake Center
Tue 07:59:02 PM 44.4569 -108.7064 117° Southeast 138 159 10,100 537 Climbing Salt Lake Center
Tue 08:00:04 PM 44.4250 -108.6597 134° Southeast 145 167 10,800 435 Climbing Salt Lake Center
Tue 08:01:06 PM 44.3975 -108.6203 134° Southeast 146 168 11,000 98 Climbing Salt Lake Center
Tue 08:02:07 PM 44.3639 -108.5678 132° Southeast 154 177 11,000 49 Level Salt Lake Center
Tue 08:03:09 PM 44.3367 -108.5233 131° Southeast 157 181 11,100 48 Climbing Salt Lake Center
Tue 08:04:11 PM 44.3033 -108.4731 133° Southeast 158 182 11,100  Level Salt Lake Center
Tue 08:05:12 PM 44.2753 -108.4292 132° Southeast 158 182 11,100  Level Salt Lake Center
Tue 08:06:14 PM 44.2475 -108.3858 132° Southeast 158 182 11,100  Level Salt Lake Center
Tue 08:07:15 PM 44.2125 -108.3328 133° Southeast 162 186 11,100 -49 Level Salt Lake Center
Tue 08:08:17 PM 44.1839 -108.2892 132° Southeast 162 186 11,000  Descending Salt Lake Center
Tue 08:09:18 PM 44.1508 -108.2375 132° Southeast 161 185 11,100 49 Climbing Salt Lake Center
Tue 08:10:20 PM 44.1228 -108.1944 132° Southeast 160 184 11,100  Level Salt Lake Center
Tue 08:11:22 PM 44.0892 -108.1436 133° Southeast 159 183 11,100  Level Salt Lake Center
Tue 08:12:23 PM 44.0594 -108.0997 133° Southeast 161 185 11,100 49 Level Salt Lake Center
Tue 08:13:25 PM 44.0308 -108.0542 131° Southeast 162 186 11,200 -49 Climbing Salt Lake Center
Tue 08:14:26 PM 43.9942 -108.0003 133° Southeast 167 192 11,000 -98 Descending Salt Lake Center
Tue 08:15:28 PM 43.9633 -107.9550 133° Southeast 169 194 11,000  Level Salt Lake Center
Tue 08:16:29 PM 43.9347 -107.8986 125° Southeast 165 190 11,000 49 Level Salt Lake Center
Tue 08:17:31 PM 43.9119 -107.8494 123° Southeast 161 185 11,100  Climbing Salt Lake Center
Tue 08:18:33 PM 43.8800 -107.7917 127° Southeast 164 189 11,000 -49 Descending Salt Lake Center
Tue 08:19:34 PM 43.8528 -107.7414 127° Southeast 168 193 11,000  Level Salt Lake Center
Tue 08:20:36 PM 43.8292 -107.6914 123° Southeast 166 191 11,000  Level Salt Lake Center
Tue 08:21:37 PM 43.8011 -107.6358 125° Southeast 162 186 11,000  Level Salt Lake Center
Tue 08:22:39 PM 43.7906 -107.5781 104° East 160 184 11,000  Level Salt Lake Center
Tue 08:23:40 PM 43.7786 -107.5061 103° East 166 191 11,000  Level Salt Lake Center
Tue 08:24:42 PM 43.7678 -107.4464 104° East 168 193 11,000 -49 Level Salt Lake Center
Tue 08:25:43 PM 43.7536 -107.3792 106° East 166 191 10,900 -49 Descending Salt Lake Center
Tue 08:26:45 PM 43.7400 -107.3244 109° East 164 189 10,900  Level Salt Lake Center
Tue 08:27:46 PM 43.7239 -107.2678 111° Southeast 163 188 10,900  Level Salt Lake Center
Tue 08:28:48 PM 43.7069 -107.2008 109° East 165 190 10,900  Level Salt Lake Center
Tue 08:29:50 PM 43.6933 -107.1475 109° East 161 185 10,900  Level Salt Lake Center
Tue 08:30:51 PM 43.6783 -107.0858 109° East 156 180 10,900  Level Salt Lake Center
Tue 08:31:53 PM 43.6656 -107.0358 109° East 151 174 10,900  Level Salt Lake Center
Tue 08:32:54 PM 43.6469 -106.9872 118° Southeast 150 173 10,900 49 Level Salt Lake Center
Tue 08:33:56 PM 43.6186 -106.9342 126° Southeast 153 176 11,000 77 Climbing Salt Lake Center
Tue 08:34:12 PM 43.6114 -106.9175 121° Southeast 154 177 11,000  Level Denver Center
Tue 08:35:13 PM 43.5836 -106.8717 130° Southeast 160 184 11,000  Level Denver Center
Tue 08:36:15 PM 43.5600 -106.8217 123° Southeast 162 186 11,000  Level Denver Center
Tue 08:37:17 PM 43.5317 -106.7667 125° Southeast 160 184 11,000  Level Denver Center
Tue 08:38:19 PM 43.5064 -106.7208 127° Southeast 158 182 11,000  Level Denver Center
Tue 08:39:20 PM 43.4647 -106.6844 148° Southeast 154 177 11,000 -537 Level Denver Center
Tue 08:40:22 PM 43.4244 -106.6583 155° Southeast 159 183 9,900 -677 Descending Denver Center
Tue 08:41:24 PM 43.3933 -106.6131 133° Southeast 154 177 9,600 -98 Descending Denver Center
Tue 08:42:25 PM 43.3647 -106.5981 159° South 131 151 9,700  Climbing Denver Center
Tue 08:43:27 PM 43.3183 -106.5850 168° South 138 159 9,600 -48 Descending Denver Center
Tue 08:44:29 PM 43.2764 -106.5714 167° South 151 174 9,600 -244 Level Denver Center
Tue 08:45:30 PM 43.2378 -106.5536 161° South 154 177 9,100 -537 Descending Denver Center
Tue 08:46:32 PM 43.2000 -106.5083 139° Southeast 160 184 8,500 -387 Descending Denver Center
Tue 08:47:34 PM 43.1675 -106.4772 145° Southeast 155 178 8,300 -341 Descending Denver Center
Tue 08:48:35 PM 43.1283 -106.4467 150° Southeast 148 170 7,800 -390 Descending Denver Center
Tue 08:49:37 PM 43.0919 -106.4300 162° South 144 166 7,500 -242 Descending Denver Center
Tue 08:50:39 PM 43.0469 -106.4278 178° South 141 162 7,300 -341 Descending Denver Center
Tue 08:51:40 PM 43.0047 -106.4350 187° South 148 170 6,800 -244 Descending Denver Center
Tue 08:52:42 PM 42.9608 -106.4475 192° South 157 181 6,800  Level Denver Center
Tue 08:53:43 PM 42.9119 -106.4803 206° Southwest 168 193 6,800  Level Denver Center
Tue 08:55:00 PM 42.9080 -106.4644 118° Southeast  Level Estimated

Login

Don't have an account? Register now (free) for customized features, flight alerts, and more!